sensor_id;sensor_type;location;lat;lon;timestamp;P1;durP1;ratioP1;P2;durP2;ratioP2
23175;SDS011;19910;42.652;23.332;2023-09-19T00:00:06;0.40;;;0.40;;
23175;SDS011;19910;42.652;23.332;2023-09-19T00:02:33;0.22;;;0.22;;
23175;SDS011;19910;42.652;23.332;2023-09-19T00:05:01;1.00;;;0.70;;
23175;SDS011;19910;42.652;23.332;2023-09-19T00:07:28;0.73;;;0.65;;
23175;SDS011;19910;42.652;23.332;2023-09-19T00:09:55;1.15;;;0.63;;
23175;SDS011;19910;42.652;23.332;2023-09-19T00:12:22;0.68;;;0.68;;
23175;SDS011;19910;42.652;23.332;2023-09-19T00:14:50;0.30;;;0.30;;
23175;SDS011;19910;42.652;23.332;2023-09-19T00:17:18;0.40;;;0.40;;
23175;SDS011;19910;42.652;23.332;2023-09-19T00:19:44;0.25;;;0.25;;
23175;SDS011;19910;42.652;23.332;2023-09-19T00:22:11;2.33;;;1.00;;
23175;SDS011;19910;42.652;23.332;2023-09-19T00:24:40;0.73;;;0.73;;
23175;SDS011;19910;42.652;23.332;2023-09-19T00:27:07;0.98;;;0.95;;
23175;SDS011;19910;42.652;23.332;2023-09-19T00:29:34;0.22;;;0.22;;
23175;SDS011;19910;42.652;23.332;2023-09-19T00:32:02;0.57;;;0.43;;
23175;SDS011;19910;42.652;23.332;2023-09-19T00:34:30;1.60;;;1.40;;
23175;SDS011;19910;42.652;23.332;2023-09-19T00:36:59;0.40;;;0.40;;
23175;SDS011;19910;42.652;23.332;2023-09-19T00:39:26;0.30;;;0.30;;
23175;SDS011;19910;42.652;23.332;2023-09-19T00:41:53;3.30;;;1.70;;
23175;SDS011;19910;42.652;23.332;2023-09-19T00:44:19;0.73;;;0.73;;
23175;SDS011;19910;42.652;23.332;2023-09-19T00:46:48;0.20;;;0.20;;
23175;SDS011;19910;42.652;23.332;2023-09-19T00:49:17;2.30;;;1.48;;
23175;SDS011;19910;42.652;23.332;2023-09-19T00:51:47;0.20;;;0.20;;
23175;SDS011;19910;42.652;23.332;2023-09-19T00:54:14;0.75;;;0.35;;
23175;SDS011;19910;42.652;23.332;2023-09-19T00:56:43;0.40;;;0.40;;
23175;SDS011;19910;42.652;23.332;2023-09-19T00:59:11;0.65;;;0.40;;
23175;SDS011;19910;42.652;23.332;2023-09-19T01:01:38;0.75;;;0.50;;
23175;SDS011;19910;42.652;23.332;2023-09-19T01:04:06;0.30;;;0.30;;
23175;SDS011;19910;42.652;23.332;2023-09-19T01:06:34;0.35;;;0.35;;
23175;SDS011;19910;42.652;23.332;2023-09-19T01:09:02;0.40;;;0.40;;
23175;SDS011;19910;42.652;23.332;2023-09-19T01:11:32;0.30;;;0.30;;
23175;SDS011;19910;42.652;23.332;2023-09-19T01:14:08;0.38;;;0.38;;
23175;SDS011;19910;42.652;23.332;2023-09-19T01:16:48;2.97;;;1.30;;
23175;SDS011;19910;42.652;23.332;2023-09-19T01:19:43;2.13;;;1.48;;
23175;SDS011;19910;42.652;23.332;2023-09-19T01:22:33;1.90;;;1.48;;
23175;SDS011;19910;42.652;23.332;2023-09-19T01:28:29;2.60;;;1.45;;
23175;SDS011;19910;42.652;23.332;2023-09-19T01:31:03;2.53;;;1.65;;
23175;SDS011;19910;42.652;23.332;2023-09-19T01:36:26;0.20;;;0.20;;
23175;SDS011;19910;42.652;23.332;2023-09-19T01:38:54;0.45;;;0.45;;
23175;SDS011;19910;42.652;23.332;2023-09-19T01:41:24;0.25;;;0.25;;
23175;SDS011;19910;42.652;23.332;2023-09-19T01:43:56;1.88;;;0.55;;
23175;SDS011;19910;42.652;23.332;2023-09-19T01:46:30;0.20;;;0.20;;
23175;SDS011;19910;42.652;23.332;2023-09-19T01:49:04;0.50;;;0.50;;
23175;SDS011;19910;42.652;23.332;2023-09-19T01:51:40;0.52;;;0.52;;
23175;SDS011;19910;42.652;23.332;2023-09-19T01:54:12;0.52;;;0.52;;
23175;SDS011;19910;42.652;23.332;2023-09-19T01:56:45;3.25;;;0.80;;
23175;SDS011;19910;42.652;23.332;2023-09-19T01:59:19;0.28;;;0.28;;
23175;SDS011;19910;42.652;23.332;2023-09-19T02:01:50;0.68;;;0.60;;
23175;SDS011;19910;42.652;23.332;2023-09-19T02:04:19;0.22;;;0.22;;
23175;SDS011;19910;42.652;23.332;2023-09-19T02:06:46;0.65;;;0.63;;
23175;SDS011;19910;42.652;23.332;2023-09-19T02:09:13;0.45;;;0.45;;
23175;SDS011;19910;42.652;23.332;2023-09-19T02:11:41;0.38;;;0.38;;
23175;SDS011;19910;42.652;23.332;2023-09-19T02:14:07;0.43;;;0.43;;
23175;SDS011;19910;42.652;23.332;2023-09-19T02:16:34;0.28;;;0.28;;
23175;SDS011;19910;42.652;23.332;2023-09-19T02:19:04;0.75;;;0.75;;
23175;SDS011;19910;42.652;23.332;2023-09-19T02:21:31;0.30;;;0.30;;
23175;SDS011;19910;42.652;23.332;2023-09-19T02:23:58;0.75;;;0.60;;
23175;SDS011;19910;42.652;23.332;2023-09-19T02:26:25;0.30;;;0.30;;
23175;SDS011;19910;42.652;23.332;2023-09-19T02:28:52;0.52;;;0.52;;
23175;SDS011;19910;42.652;23.332;2023-09-19T02:31:19;1.65;;;0.93;;
23175;SDS011;19910;42.652;23.332;2023-09-19T02:33:46;0.75;;;0.75;;
23175;SDS011;19910;42.652;23.332;2023-09-19T02:36:13;0.73;;;0.73;;
23175;SDS011;19910;42.652;23.332;2023-09-19T02:38:42;0.52;;;0.52;;
23175;SDS011;19910;42.652;23.332;2023-09-19T02:41:09;0.35;;;0.35;;
23175;SDS011;19910;42.652;23.332;2023-09-19T02:43:36;0.35;;;0.35;;
23175;SDS011;19910;42.652;23.332;2023-09-19T02:46:02;0.43;;;0.43;;
23175;SDS011;19910;42.652;23.332;2023-09-19T02:48:29;0.70;;;0.70;;
23175;SDS011;19910;42.652;23.332;2023-09-19T02:50:57;0.85;;;0.85;;
23175;SDS011;19910;42.652;23.332;2023-09-19T02:53:26;0.68;;;0.68;;
23175;SDS011;19910;42.652;23.332;2023-09-19T02:55:52;0.55;;;0.55;;
23175;SDS011;19910;42.652;23.332;2023-09-19T02:58:19;0.40;;;0.40;;
23175;SDS011;19910;42.652;23.332;2023-09-19T03:00:46;0.57;;;0.30;;
23175;SDS011;19910;42.652;23.332;2023-09-19T03:03:15;0.85;;;0.73;;
23175;SDS011;19910;42.652;23.332;2023-09-19T03:05:42;0.52;;;0.52;;
23175;SDS011;19910;42.652;23.332;2023-09-19T03:08:12;0.68;;;0.60;;
23175;SDS011;19910;42.652;23.332;2023-09-19T03:10:41;1.48;;;1.02;;
23175;SDS011;19910;42.652;23.332;2023-09-19T03:13:08;0.80;;;0.77;;
23175;SDS011;19910;42.652;23.332;2023-09-19T03:15:36;0.38;;;0.38;;
23175;SDS011;19910;42.652;23.332;2023-09-19T03:18:04;0.95;;;0.55;;
23175;SDS011;19910;42.652;23.332;2023-09-19T03:20:31;0.50;;;0.50;;
23175;SDS011;19910;42.652;23.332;2023-09-19T03:22:57;0.30;;;0.30;;
23175;SDS011;19910;42.652;23.332;2023-09-19T03:25:25;3.17;;;1.52;;
23175;SDS011;19910;42.652;23.332;2023-09-19T03:27:57;0.50;;;0.50;;
23175;SDS011;19910;42.652;23.332;2023-09-19T03:30:24;0.73;;;0.68;;
23175;SDS011;19910;42.652;23.332;2023-09-19T03:32:51;1.00;;;0.93;;
23175;SDS011;19910;42.652;23.332;2023-09-19T03:35:18;1.33;;;1.00;;
23175;SDS011;19910;42.652;23.332;2023-09-19T03:37:45;0.38;;;0.38;;
23175;SDS011;19910;42.652;23.332;2023-09-19T03:40:12;0.40;;;0.40;;
23175;SDS011;19910;42.652;23.332;2023-09-19T03:42:38;1.33;;;1.23;;
23175;SDS011;19910;42.652;23.332;2023-09-19T03:45:07;0.20;;;0.20;;
23175;SDS011;19910;42.652;23.332;2023-09-19T03:47:37;1.05;;;0.77;;
23175;SDS011;19910;42.652;23.332;2023-09-19T03:50:04;0.38;;;0.38;;
23175;SDS011;19910;42.652;23.332;2023-09-19T03:52:32;1.00;;;0.93;;
23175;SDS011;19910;42.652;23.332;2023-09-19T03:54:59;0.85;;;0.85;;
23175;SDS011;19910;42.652;23.332;2023-09-19T03:57:27;0.20;;;0.20;;
23175;SDS011;19910;42.652;23.332;2023-09-19T03:59:54;1.58;;;0.55;;
23175;SDS011;19910;42.652;23.332;2023-09-19T04:02:22;0.70;;;0.70;;
23175;SDS011;19910;42.652;23.332;2023-09-19T04:04:49;0.50;;;0.50;;
23175;SDS011;19910;42.652;23.332;2023-09-19T04:07:17;0.55;;;0.55;;
23175;SDS011;19910;42.652;23.332;2023-09-19T04:09:47;0.52;;;0.52;;
23175;SDS011;19910;42.652;23.332;2023-09-19T04:12:14;0.68;;;0.60;;
23175;SDS011;19910;42.652;23.332;2023-09-19T04:14:42;0.60;;;0.60;;
23175;SDS011;19910;42.652;23.332;2023-09-19T04:17:08;0.80;;;0.80;;
23175;SDS011;19910;42.652;23.332;2023-09-19T04:19:37;0.70;;;0.70;;
23175;SDS011;19910;42.652;23.332;2023-09-19T04:22:04;0.70;;;0.55;;
23175;SDS011;19910;42.652;23.332;2023-09-19T04:24:31;0.68;;;0.50;;
23175;SDS011;19910;42.652;23.332;2023-09-19T04:26:59;1.20;;;0.93;;
23175;SDS011;19910;42.652;23.332;2023-09-19T04:29:25;0.57;;;0.55;;
23175;SDS011;19910;42.652;23.332;2023-09-19T04:31:54;1.40;;;1.30;;
23175;SDS011;19910;42.652;23.332;2023-09-19T04:34:22;1.50;;;0.93;;
23175;SDS011;19910;42.652;23.332;2023-09-19T04:36:50;1.70;;;1.48;;
23175;SDS011;19910;42.652;23.332;2023-09-19T04:39:17;1.63;;;1.52;;
23175;SDS011;19910;42.652;23.332;2023-09-19T04:41:44;2.95;;;0.90;;
23175;SDS011;19910;42.652;23.332;2023-09-19T04:44:13;0.65;;;0.65;;
23175;SDS011;19910;42.652;23.332;2023-09-19T04:46:40;0.45;;;0.45;;
23175;SDS011;19910;42.652;23.332;2023-09-19T04:49:07;0.75;;;0.60;;
23175;SDS011;19910;42.652;23.332;2023-09-19T04:51:34;1.25;;;0.70;;
23175;SDS011;19910;42.652;23.332;2023-09-19T04:54:02;2.35;;;2.05;;
23175;SDS011;19910;42.652;23.332;2023-09-19T04:56:30;0.52;;;0.52;;
23175;SDS011;19910;42.652;23.332;2023-09-19T04:58:57;1.00;;;0.90;;
23175;SDS011;19910;42.652;23.332;2023-09-19T05:01:25;3.55;;;0.82;;
23175;SDS011;19910;42.652;23.332;2023-09-19T05:03:52;0.73;;;0.70;;
23175;SDS011;19910;42.652;23.332;2023-09-19T05:06:19;1.23;;;0.98;;
23175;SDS011;19910;42.652;23.332;2023-09-19T05:08:46;1.17;;;1.10;;
23175;SDS011;19910;42.652;23.332;2023-09-19T05:11:16;1.02;;;0.93;;
23175;SDS011;19910;42.652;23.332;2023-09-19T05:13:43;0.43;;;0.43;;
23175;SDS011;19910;42.652;23.332;2023-09-19T05:16:10;2.65;;;1.70;;
23175;SDS011;19910;42.652;23.332;2023-09-19T05:18:37;2.63;;;1.55;;
23175;SDS011;19910;42.652;23.332;2023-09-19T05:21:04;1.58;;;1.40;;
23175;SDS011;19910;42.652;23.332;2023-09-19T05:23:31;2.50;;;1.83;;
23175;SDS011;19910;42.652;23.332;2023-09-19T05:25:58;2.30;;;1.63;;
23175;SDS011;19910;42.652;23.332;2023-09-19T05:28:26;1.45;;;1.35;;
23175;SDS011;19910;42.652;23.332;2023-09-19T05:30:53;0.85;;;0.85;;
23175;SDS011;19910;42.652;23.332;2023-09-19T05:33:20;2.28;;;1.15;;
23175;SDS011;19910;42.652;23.332;2023-09-19T05:35:47;1.15;;;1.05;;
23175;SDS011;19910;42.652;23.332;2023-09-19T05:38:18;0.70;;;0.70;;
23175;SDS011;19910;42.652;23.332;2023-09-19T05:40:45;0.55;;;0.52;;
23175;SDS011;19910;42.652;23.332;2023-09-19T05:43:12;1.38;;;0.85;;
23175;SDS011;19910;42.652;23.332;2023-09-19T05:45:41;1.73;;;1.58;;
23175;SDS011;19910;42.652;23.332;2023-09-19T05:48:08;2.28;;;1.98;;
23175;SDS011;19910;42.652;23.332;2023-09-19T05:50:36;2.47;;;1.75;;
23175;SDS011;19910;42.652;23.332;2023-09-19T05:53:03;2.63;;;1.60;;
23175;SDS011;19910;42.652;23.332;2023-09-19T05:55:30;2.08;;;1.60;;
23175;SDS011;19910;42.652;23.332;2023-09-19T05:57:57;2.42;;;1.50;;
23175;SDS011;19910;42.652;23.332;2023-09-19T06:00:25;2.08;;;1.08;;
23175;SDS011;19910;42.652;23.332;2023-09-19T06:02:55;0.60;;;0.60;;
23175;SDS011;19910;42.652;23.332;2023-09-19T06:05:23;2.50;;;1.85;;
23175;SDS011;19910;42.652;23.332;2023-09-19T06:07:55;0.77;;;0.52;;
23175;SDS011;19910;42.652;23.332;2023-09-19T06:10:25;1.58;;;1.48;;
23175;SDS011;19910;42.652;23.332;2023-09-19T06:12:53;2.33;;;1.70;;
23175;SDS011;19910;42.652;23.332;2023-09-19T06:15:20;1.75;;;1.33;;
23175;SDS011;19910;42.652;23.332;2023-09-19T06:17:50;1.08;;;0.70;;
23175;SDS011;19910;42.652;23.332;2023-09-19T06:20:21;1.58;;;1.00;;
23175;SDS011;19910;42.652;23.332;2023-09-19T06:22:49;0.70;;;0.70;;
23175;SDS011;19910;42.652;23.332;2023-09-19T06:25:16;1.45;;;1.20;;
23175;SDS011;19910;42.652;23.332;2023-09-19T06:27:44;0.80;;;0.80;;
23175;SDS011;19910;42.652;23.332;2023-09-19T06:30:12;1.90;;;1.60;;
23175;SDS011;19910;42.652;23.332;2023-09-19T06:32:39;1.25;;;1.10;;
23175;SDS011;19910;42.652;23.332;2023-09-19T06:35:09;2.72;;;1.50;;
23175;SDS011;19910;42.652;23.332;2023-09-19T06:37:39;0.65;;;0.65;;
23175;SDS011;19910;42.652;23.332;2023-09-19T06:40:07;1.17;;;0.98;;
23175;SDS011;19910;42.652;23.332;2023-09-19T06:42:40;0.45;;;0.40;;
23175;SDS011;19910;42.652;23.332;2023-09-19T06:45:08;0.75;;;0.70;;
23175;SDS011;19910;42.652;23.332;2023-09-19T06:47:36;0.45;;;0.45;;
23175;SDS011;19910;42.652;23.332;2023-09-19T06:50:03;2.08;;;1.60;;
23175;SDS011;19910;42.652;23.332;2023-09-19T06:52:34;1.00;;;0.90;;
23175;SDS011;19910;42.652;23.332;2023-09-19T06:55:02;1.80;;;1.38;;
23175;SDS011;19910;42.652;23.332;2023-09-19T06:57:29;1.77;;;1.25;;
23175;SDS011;19910;42.652;23.332;2023-09-19T06:59:57;1.65;;;1.20;;
23175;SDS011;19910;42.652;23.332;2023-09-19T07:02:23;0.80;;;0.77;;
23175;SDS011;19910;42.652;23.332;2023-09-19T07:04:50;2.45;;;1.52;;
23175;SDS011;19910;42.652;23.332;2023-09-19T07:07:17;2.00;;;1.42;;
23175;SDS011;19910;42.652;23.332;2023-09-19T07:09:44;1.00;;;0.88;;
23175;SDS011;19910;42.652;23.332;2023-09-19T07:12:15;1.75;;;1.50;;
23175;SDS011;19910;42.652;23.332;2023-09-19T07:14:44;1.85;;;1.45;;
23175;SDS011;19910;42.652;23.332;2023-09-19T07:17:11;1.67;;;1.38;;
23175;SDS011;19910;42.652;23.332;2023-09-19T07:19:38;3.08;;;1.90;;
23175;SDS011;19910;42.652;23.332;2023-09-19T07:22:05;1.48;;;1.38;;
23175;SDS011;19910;42.652;23.332;2023-09-19T07:24:33;2.08;;;1.30;;
23175;SDS011;19910;42.652;23.332;2023-09-19T07:27:01;1.45;;;1.20;;
23175;SDS011;19910;42.652;23.332;2023-09-19T07:29:31;2.53;;;1.30;;
23175;SDS011;19910;42.652;23.332;2023-09-19T07:31:58;2.30;;;1.67;;
23175;SDS011;19910;42.652;23.332;2023-09-19T07:34:25;0.73;;;0.70;;
23175;SDS011;19910;42.652;23.332;2023-09-19T07:36:52;1.17;;;1.08;;
23175;SDS011;19910;42.652;23.332;2023-09-19T07:39:18;2.50;;;1.65;;
23175;SDS011;19910;42.652;23.332;2023-09-19T07:41:46;2.08;;;1.80;;
23175;SDS011;19910;42.652;23.332;2023-09-19T07:44:13;1.95;;;1.52;;
23175;SDS011;19910;42.652;23.332;2023-09-19T07:46:42;1.63;;;1.50;;
23175;SDS011;19910;42.652;23.332;2023-09-19T07:49:09;1.50;;;1.30;;
23175;SDS011;19910;42.652;23.332;2023-09-19T07:51:35;0.70;;;0.70;;
23175;SDS011;19910;42.652;23.332;2023-09-19T07:54:03;1.00;;;0.90;;
23175;SDS011;19910;42.652;23.332;2023-09-19T07:56:31;1.40;;;1.08;;
23175;SDS011;19910;42.652;23.332;2023-09-19T07:58:59;1.40;;;1.30;;
23175;SDS011;19910;42.652;23.332;2023-09-19T08:01:25;2.05;;;1.33;;
23175;SDS011;19910;42.652;23.332;2023-09-19T08:03:54;2.67;;;1.40;;
23175;SDS011;19910;42.652;23.332;2023-09-19T08:06:21;1.27;;;1.10;;
23175;SDS011;19910;42.652;23.332;2023-09-19T08:08:50;1.88;;;1.60;;
23175;SDS011;19910;42.652;23.332;2023-09-19T08:11:18;2.55;;;1.60;;
23175;SDS011;19910;42.652;23.332;2023-09-19T08:13:46;1.85;;;1.52;;
23175;SDS011;19910;42.652;23.332;2023-09-19T08:16:14;1.80;;;1.30;;
23175;SDS011;19910;42.652;23.332;2023-09-19T08:18:43;1.70;;;1.30;;
23175;SDS011;19910;42.652;23.332;2023-09-19T08:21:14;0.88;;;0.88;;
23175;SDS011;19910;42.652;23.332;2023-09-19T08:23:41;1.80;;;1.65;;
23175;SDS011;19910;42.652;23.332;2023-09-19T08:26:08;1.02;;;0.90;;
23175;SDS011;19910;42.652;23.332;2023-09-19T08:28:35;0.95;;;0.75;;
23175;SDS011;19910;42.652;23.332;2023-09-19T08:31:02;2.90;;;1.73;;
23175;SDS011;19910;42.652;23.332;2023-09-19T08:33:31;2.38;;;1.88;;
23175;SDS011;19910;42.652;23.332;2023-09-19T08:35:58;1.83;;;1.27;;
23175;SDS011;19910;42.652;23.332;2023-09-19T08:38:26;2.10;;;1.77;;
23175;SDS011;19910;42.652;23.332;2023-09-19T08:40:56;2.55;;;1.88;;
23175;SDS011;19910;42.652;23.332;2023-09-19T08:43:24;2.75;;;1.70;;
23175;SDS011;19910;42.652;23.332;2023-09-19T08:45:53;2.55;;;2.10;;
23175;SDS011;19910;42.652;23.332;2023-09-19T08:48:29;2.70;;;1.95;;
23175;SDS011;19910;42.652;23.332;2023-09-19T08:51:00;0.98;;;0.88;;
23175;SDS011;19910;42.652;23.332;2023-09-19T08:53:34;1.85;;;1.60;;
23175;SDS011;19910;42.652;23.332;2023-09-19T08:56:08;2.08;;;1.85;;
23175;SDS011;19910;42.652;23.332;2023-09-19T08:58:39;2.95;;;1.90;;
23175;SDS011;19910;42.652;23.332;2023-09-19T09:01:13;1.73;;;1.63;;
23175;SDS011;19910;42.652;23.332;2023-09-19T09:03:42;2.10;;;1.70;;
23175;SDS011;19910;42.652;23.332;2023-09-19T09:06:13;4.22;;;1.90;;
23175;SDS011;19910;42.652;23.332;2023-09-19T09:08:43;1.90;;;1.60;;
23175;SDS011;19910;42.652;23.332;2023-09-19T09:11:11;2.05;;;1.70;;
23175;SDS011;19910;42.652;23.332;2023-09-19T09:13:38;1.90;;;1.70;;
23175;SDS011;19910;42.652;23.332;2023-09-19T09:16:06;1.55;;;1.40;;
23175;SDS011;19910;42.652;23.332;2023-09-19T09:18:33;3.38;;;2.40;;
23175;SDS011;19910;42.652;23.332;2023-09-19T09:21:00;2.97;;;1.67;;
23175;SDS011;19910;42.652;23.332;2023-09-19T09:23:26;2.78;;;2.08;;
23175;SDS011;19910;42.652;23.332;2023-09-19T09:25:56;2.22;;;1.75;;
23175;SDS011;19910;42.652;23.332;2023-09-19T09:28:27;2.15;;;1.70;;
23175;SDS011;19910;42.652;23.332;2023-09-19T09:30:56;2.28;;;1.90;;
23175;SDS011;19910;42.652;23.332;2023-09-19T09:33:24;3.25;;;2.30;;
23175;SDS011;19910;42.652;23.332;2023-09-19T09:35:51;2.30;;;1.77;;
23175;SDS011;19910;42.652;23.332;2023-09-19T09:38:22;2.05;;;1.85;;
23175;SDS011;19910;42.652;23.332;2023-09-19T09:40:52;3.53;;;2.05;;
23175;SDS011;19910;42.652;23.332;2023-09-19T09:43:27;3.00;;;1.77;;
23175;SDS011;19910;42.652;23.332;2023-09-19T09:46:08;2.20;;;1.95;;
23175;SDS011;19910;42.652;23.332;2023-09-19T09:49:01;6.95;;;2.25;;
23175;SDS011;19910;42.652;23.332;2023-09-19T09:51:44;2.22;;;2.00;;
23175;SDS011;19910;42.652;23.332;2023-09-19T09:54:14;1.92;;;1.55;;
23175;SDS011;19910;42.652;23.332;2023-09-19T09:56:52;2.50;;;1.67;;
23175;SDS011;19910;42.652;23.332;2023-09-19T10:02:16;1.85;;;1.60;;
23175;SDS011;19910;42.652;23.332;2023-09-19T10:04:50;2.47;;;1.75;;
23175;SDS011;19910;42.652;23.332;2023-09-19T10:07:34;1.63;;;1.42;;
23175;SDS011;19910;42.652;23.332;2023-09-19T10:10:06;2.20;;;1.63;;
23175;SDS011;19910;42.652;23.332;2023-09-19T10:12:42;2.00;;;1.58;;
23175;SDS011;19910;42.652;23.332;2023-09-19T10:15:14;2.05;;;1.63;;
23175;SDS011;19910;42.652;23.332;2023-09-19T10:17:45;1.73;;;1.42;;
23175;SDS011;19910;42.652;23.332;2023-09-19T10:20:13;2.88;;;1.75;;
23175;SDS011;19910;42.652;23.332;2023-09-19T10:22:48;2.33;;;1.75;;
23175;SDS011;19910;42.652;23.332;2023-09-19T10:25:23;2.10;;;1.70;;
23175;SDS011;19910;42.652;23.332;2023-09-19T10:27:55;2.15;;;1.70;;
23175;SDS011;19910;42.652;23.332;2023-09-19T10:30:26;1.88;;;1.60;;
23175;SDS011;19910;42.652;23.332;2023-09-19T10:32:57;1.98;;;1.60;;
23175;SDS011;19910;42.652;23.332;2023-09-19T10:35:28;2.00;;;1.45;;
23175;SDS011;19910;42.652;23.332;2023-09-19T10:37:57;1.90;;;1.48;;
23175;SDS011;19910;42.652;23.332;2023-09-19T10:40:29;1.48;;;1.38;;
23175;SDS011;19910;42.652;23.332;2023-09-19T10:43:00;2.47;;;1.95;;
23175;SDS011;19910;42.652;23.332;2023-09-19T10:45:32;1.85;;;1.48;;
23175;SDS011;19910;42.652;23.332;2023-09-19T10:48:00;1.90;;;1.70;;
23175;SDS011;19910;42.652;23.332;2023-09-19T10:50:29;4.10;;;2.00;;
23175;SDS011;19910;42.652;23.332;2023-09-19T10:52:59;2.08;;;1.52;;
23175;SDS011;19910;42.652;23.332;2023-09-19T10:55:32;3.47;;;2.22;;
23175;SDS011;19910;42.652;23.332;2023-09-19T10:58:00;1.58;;;1.35;;
23175;SDS011;19910;42.652;23.332;2023-09-19T11:00:30;1.80;;;1.60;;
23175;SDS011;19910;42.652;23.332;2023-09-19T11:03:16;2.78;;;1.60;;
23175;SDS011;19910;42.652;23.332;2023-09-19T11:06:00;2.00;;;1.70;;
23175;SDS011;19910;42.652;23.332;2023-09-19T11:20:24;1.90;;;1.55;;
23175;SDS011;19910;42.652;23.332;2023-09-19T11:23:17;2.60;;;1.75;;
23175;SDS011;19910;42.652;23.332;2023-09-19T11:25:43;2.63;;;1.50;;
23175;SDS011;19910;42.652;23.332;2023-09-19T11:30:58;2.08;;;1.63;;
23175;SDS011;19910;42.652;23.332;2023-09-19T11:33:27;1.50;;;1.40;;
23175;SDS011;19910;42.652;23.332;2023-09-19T11:35:58;1.50;;;1.40;;
23175;SDS011;19910;42.652;23.332;2023-09-19T11:41:37;1.70;;;1.55;;
23175;SDS011;19910;42.652;23.332;2023-09-19T11:47:03;1.88;;;1.67;;
23175;SDS011;19910;42.652;23.332;2023-09-19T11:49:33;2.45;;;1.60;;
23175;SDS011;19910;42.652;23.332;2023-09-19T11:52:02;2.10;;;1.48;;
23175;SDS011;19910;42.652;23.332;2023-09-19T11:54:32;2.40;;;1.67;;
23175;SDS011;19910;42.652;23.332;2023-09-19T11:56:59;4.88;;;2.22;;
23175;SDS011;19910;42.652;23.332;2023-09-19T11:59:28;2.08;;;1.40;;
23175;SDS011;19910;42.652;23.332;2023-09-19T12:01:56;1.90;;;1.58;;
23175;SDS011;19910;42.652;23.332;2023-09-19T12:04:35;2.05;;;1.77;;
23175;SDS011;19910;42.652;23.332;2023-09-19T12:07:04;1.92;;;1.58;;
23175;SDS011;19910;42.652;23.332;2023-09-19T12:09:35;1.65;;;1.55;;
23175;SDS011;19910;42.652;23.332;2023-09-19T12:12:02;1.90;;;1.80;;
23175;SDS011;19910;42.652;23.332;2023-09-19T12:14:29;1.67;;;1.40;;
23175;SDS011;19910;42.652;23.332;2023-09-19T12:16:58;2.03;;;1.52;;
23175;SDS011;19910;42.652;23.332;2023-09-19T12:19:27;2.08;;;1.70;;
23175;SDS011;19910;42.652;23.332;2023-09-19T12:21:56;3.00;;;1.63;;
23175;SDS011;19910;42.652;23.332;2023-09-19T12:24:30;2.03;;;1.65;;
23175;SDS011;19910;42.652;23.332;2023-09-19T12:27:00;1.50;;;1.27;;
23175;SDS011;19910;42.652;23.332;2023-09-19T12:29:29;2.03;;;1.52;;
23175;SDS011;19910;42.652;23.332;2023-09-19T12:31:57;1.45;;;1.33;;
23175;SDS011;19910;42.652;23.332;2023-09-19T12:34:26;1.67;;;1.40;;
23175;SDS011;19910;42.652;23.332;2023-09-19T12:37:07;2.05;;;1.50;;
23175;SDS011;19910;42.652;23.332;2023-09-19T12:39:41;2.20;;;1.55;;
23175;SDS011;19910;42.652;23.332;2023-09-19T12:42:09;1.80;;;1.60;;
23175;SDS011;19910;42.652;23.332;2023-09-19T12:44:40;2.03;;;1.60;;
23175;SDS011;19910;42.652;23.332;2023-09-19T12:47:09;1.67;;;1.45;;
23175;SDS011;19910;42.652;23.332;2023-09-19T12:52:39;2.00;;;1.80;;
23175;SDS011;19910;42.652;23.332;2023-09-19T12:55:18;2.20;;;1.98;;
23175;SDS011;19910;42.652;23.332;2023-09-19T12:57:54;1.50;;;1.40;;
23175;SDS011;19910;42.652;23.332;2023-09-19T13:00:30;4.25;;;2.08;;
23175;SDS011;19910;42.652;23.332;2023-09-19T13:03:16;1.40;;;1.15;;
23175;SDS011;19910;42.652;23.332;2023-09-19T13:05:53;2.47;;;2.00;;
23175;SDS011;19910;42.652;23.332;2023-09-19T13:08:22;2.15;;;1.67;;
23175;SDS011;19910;42.652;23.332;2023-09-19T13:11:04;3.85;;;1.63;;
23175;SDS011;19910;42.652;23.332;2023-09-19T13:13:35;1.90;;;1.50;;
23175;SDS011;19910;42.652;23.332;2023-09-19T13:16:03;2.15;;;1.40;;
23175;SDS011;19910;42.652;23.332;2023-09-19T13:18:41;1.55;;;1.38;;
23175;SDS011;19910;42.652;23.332;2023-09-19T13:21:10;1.55;;;1.35;;
23175;SDS011;19910;42.652;23.332;2023-09-19T13:23:42;1.70;;;1.60;;
23175;SDS011;19910;42.652;23.332;2023-09-19T13:26:11;1.60;;;1.38;;
23175;SDS011;19910;42.652;23.332;2023-09-19T13:28:37;1.77;;;1.55;;
23175;SDS011;19910;42.652;23.332;2023-09-19T13:31:05;2.55;;;1.80;;
23175;SDS011;19910;42.652;23.332;2023-09-19T13:33:33;2.53;;;2.00;;
23175;SDS011;19910;42.652;23.332;2023-09-19T13:36:01;2.78;;;1.70;;
23175;SDS011;19910;42.652;23.332;2023-09-19T13:38:28;4.40;;;2.53;;
23175;SDS011;19910;42.652;23.332;2023-09-19T13:40:56;1.48;;;1.23;;
23175;SDS011;19910;42.652;23.332;2023-09-19T13:43:22;1.98;;;1.63;;
23175;SDS011;19910;42.652;23.332;2023-09-19T13:45:50;1.55;;;1.40;;
23175;SDS011;19910;42.652;23.332;2023-09-19T13:48:23;2.00;;;1.55;;
23175;SDS011;19910;42.652;23.332;2023-09-19T13:50:55;1.60;;;1.50;;
23175;SDS011;19910;42.652;23.332;2023-09-19T13:53:22;1.45;;;1.20;;
23175;SDS011;19910;42.652;23.332;2023-09-19T13:55:48;1.90;;;1.67;;
23175;SDS011;19910;42.652;23.332;2023-09-19T13:58:17;2.38;;;1.60;;
23175;SDS011;19910;42.652;23.332;2023-09-19T14:00:44;2.38;;;1.75;;
23175;SDS011;19910;42.652;23.332;2023-09-19T14:03:11;4.55;;;3.15;;
23175;SDS011;19910;42.652;23.332;2023-09-19T14:05:40;3.85;;;3.20;;
23175;SDS011;19910;42.652;23.332;2023-09-19T14:08:08;8.68;;;5.25;;
23175;SDS011;19910;42.652;23.332;2023-09-19T14:10:35;2.85;;;2.45;;
23175;SDS011;19910;42.652;23.332;2023-09-19T14:13:01;2.35;;;2.13;;
23175;SDS011;19910;42.652;23.332;2023-09-19T14:15:36;2.75;;;1.83;;
23175;SDS011;19910;42.652;23.332;2023-09-19T14:18:04;4.00;;;2.92;;
23175;SDS011;19910;42.652;23.332;2023-09-19T14:20:31;3.80;;;3.45;;
23175;SDS011;19910;42.652;23.332;2023-09-19T14:23:04;2.78;;;2.00;;
23175;SDS011;19910;42.652;23.332;2023-09-19T14:25:33;2.28;;;1.95;;
23175;SDS011;19910;42.652;23.332;2023-09-19T14:28:00;4.43;;;3.00;;
23175;SDS011;19910;42.652;23.332;2023-09-19T14:30:27;5.30;;;3.10;;
23175;SDS011;19910;42.652;23.332;2023-09-19T14:32:55;3.25;;;2.45;;
23175;SDS011;19910;42.652;23.332;2023-09-19T14:35:23;5.70;;;4.43;;
23175;SDS011;19910;42.652;23.332;2023-09-19T14:37:50;5.32;;;3.05;;
23175;SDS011;19910;42.652;23.332;2023-09-19T14:40:16;5.70;;;3.55;;
23175;SDS011;19910;42.652;23.332;2023-09-19T14:42:43;3.60;;;2.42;;
23175;SDS011;19910;42.652;23.332;2023-09-19T14:45:11;2.92;;;1.77;;
23175;SDS011;19910;42.652;23.332;2023-09-19T14:47:39;4.82;;;3.20;;
23175;SDS011;19910;42.652;23.332;2023-09-19T14:50:09;3.22;;;2.72;;
23175;SDS011;19910;42.652;23.332;2023-09-19T14:52:37;1.92;;;1.70;;
23175;SDS011;19910;42.652;23.332;2023-09-19T14:55:05;2.45;;;1.77;;
23175;SDS011;19910;42.652;23.332;2023-09-19T14:57:34;2.17;;;1.83;;
23175;SDS011;19910;42.652;23.332;2023-09-19T15:00:05;2.20;;;1.73;;
23175;SDS011;19910;42.652;23.332;2023-09-19T15:02:37;2.35;;;1.95;;
23175;SDS011;19910;42.652;23.332;2023-09-19T15:05:05;2.55;;;2.35;;
23175;SDS011;19910;42.652;23.332;2023-09-19T15:07:35;2.67;;;2.15;;
23175;SDS011;19910;42.652;23.332;2023-09-19T15:10:03;2.28;;;1.98;;
23175;SDS011;19910;42.652;23.332;2023-09-19T15:12:32;3.13;;;2.28;;
23175;SDS011;19910;42.652;23.332;2023-09-19T15:15:00;2.35;;;2.00;;
23175;SDS011;19910;42.652;23.332;2023-09-19T15:17:26;2.58;;;2.10;;